ELLXLFJL

Guest
Details From ELLX - Luxembourg
To LFJL - Metz-Nancy-Lorraine
Flight Number -
Tags generated
Created
Modified
Stats Distance 39 nm / 72 km
Max Altitude 2,500 ft / 762 m
Waypoints 3
Social Downloads 2
Likes 0
Share VATSIM

Download

Looking for another format? Having issues loading an existing format? Contact us
Advertisement - Login to hide

Notes

Basic altitude profile: - Ascent Rate: 500ft/min - Ascent Speed: 90kts - Cruise Altitude: 3000ft - Cruise Speed: 180kts - Descent Rate: 500ft/min - Descent Speed: 150kts Options: - Use NATs: yes - Use PACOTS: yes - Use low airways: yes - Use high airways: yes

Route

ELLX MONDO LFJL

ID Type Via Altitude Latitude Longitude Leg Dist Tot Dist Heading (true) Name
O ELLX APT - 0 ft / 0 m 49.62660˚ 6.21151˚ - 0 nm - Luxembourg
MONDO FIX - 2,500 ft / 762 m 49.50748˚ 6.22378˚ 7 nm 7 nm 176° / 176° -
O LFJL APT - 0 ft / 0 m 48.98065˚ 6.24947˚ 31 nm 38 nm 178° / 178° Metz-Nancy-Lorraine

Altitude Profile

Advertisement - Login to hide

ELLX

Details ICAO ELLX (LUX)
Name Luxembourg
Region Luxembourg
Timezone Europe/Luxembourg (UTC+2.0)
Stats Elevation 1,158 ft / 353 m (AMSL)
Location 49.626599° 6.211506°
Runways 1
Magnetic Variation 1.748° E

METAR

ELLX 261620Z 11006KT 070V140 CAVOK 27/15 Q1019 NOSIG

Decode

TAF

TAF ELLX 261100Z 2612/2718 12009KT CAVOK TEMPO 2710/2718 VRB15G30KT 4000 TSRA TSGR BKN020CB

Decode

Departure Runways

ID Width Length Bearing (true) Bearing (mag) Surface Threshold Offset Overrun Length
06 197 ft / 60 m 13,135 ft / 4,004 m 60.14° 58.39° Asphalt 0 ft / 0 m 0 ft / 0 m
24 197 ft / 60 m 13,135 ft / 4,004 m 240.18° 238.43° Asphalt 0 ft / 0 m 180 ft / 55 m

LFJL

Details ICAO LFJL (ETZ)
Name Metz-Nancy-Lorraine
Region France
Timezone Europe/Paris (UTC+2.0)
Stats Elevation 870 ft / 265 m (AMSL)
Location 48.980645° 6.249473°
Runways 1
Magnetic Variation 1.776° E

METAR

LFJL 261630Z AUTO 00000KT CAVOK 26/17 Q1019 TEMPO FEW050CB

Decode

TAF

TAF LFJL 261100Z 2612/2712 16006KT CAVOK TEMPO 2612/2620 FEW050CB PROB30 TEMPO 2613/2617 -TSRA

Decode

Destination Runways

ID Width Length Bearing (true) Bearing (mag) Surface Threshold Offset Overrun Length
04 148 ft / 45 m 10,016 ft / 3,053 m 39.13° 37.35° Asphalt 656 ft / 200 m 0 ft / 0 m
22 148 ft / 45 m 10,016 ft / 3,053 m 219.15° 217.37° Asphalt 0 ft / 0 m 0 ft / 0 m

Approach Navaids

Runway Type Ident Frequency Range Bearing (true) Bearing (mag) Slope Elevation
04 Localiser MLY 111.75 MHz 18 nm / 33 km 39.16° 37.38° - 869 ft / 265 m (AMSL)
04 Glidescope MLY 111.75 MHz 10 nm / 19 km 39.14° 37.37° 3.00° 869 ft / 265 m (AMSL)
22 Localiser MLY 111.75 MHz 18 nm / 33 km 219.20° 217.43° - 870 ft / 265 m (AMSL)
22 Glidescope MLY 111.75 MHz 10 nm / 19 km 219.14° 217.37° 3.00° 870 ft / 265 m (AMSL)
22 DME MLY 111.75 MHz 18 nm / 33 km - - - 919 ft / 280 m (AMSL)

Popular Alternatives